Elk, Washington
Current Conditions -  °F | °C
As of 11:53 PM on Thursday 18 Dec 2014 (Local Time) from KDEW Reporting Station
Overcast Overcast  
Wind Chill: 37°   Ceiling: 3900
Heat Index: 37°   Visibility: 9mi
Dew Point: 36°   Wind: 0mph
Humidity: 96%   Direction: NA
Pressure: 29.93"   Gusts: NA
Location:  48.02°N, 117.28°W
Report Text: KDEW 190753Z AUTO 00000KT 9SM OVC039 03/02 A2993 RMK AO2 SLP149 T00280022 400330011
Loading
Personal Weather Stations






























Interactive Weather Map New forecast layout! Learn more

10-Day Weather Forecast

Advertisements
Track Severe Weather on mobile